Time;durP1;ratioP1;P1;durP2;ratioP2;P2;SDS_P1;SDS_P2;PMS_P1;PMS_P2;Temp;Humidity;BMP_temperature;BMP_pressure;BME280_temperature;BME280_humidity;BME280_pressure;Samples;Min_cycle;Max_cycle;Signal;HPM_P1;HPM_P2
2022/04/13 00:00:15;;;;;;;;;9.75;8.50;;;;;14.98;52.82;99007.66;5072180;28;45937;-64
2022/04/13 00:02:40;;;;;;;;;18.33;16.00;;;;;14.94;52.69;99000.81;5074873;27;45463;-64
2022/04/13 00:05:08;;;;;;;;;10.75;10.25;;;;;14.93;53.04;98996.47;5075390;27;45391;-64
2022/04/13 00:07:33;;;;;;;;;10.50;9.25;;;;;14.91;53.08;98995.72;5075363;27;45336;-63
2022/04/13 00:09:59;;;;;;;;;10.25;10.25;;;;;14.90;53.09;98999.31;5076476;27;45988;-64
2022/04/13 00:12:24;;;;;;;;;11.00;10.25;;;;;14.89;53.24;98997.63;5076589;27;45509;-64
2022/04/13 00:14:50;;;;;;;;;12.25;9.25;;;;;14.87;53.55;98999.50;5072357;28;45462;-64
2022/04/13 00:17:17;;;;;;;;;9.75;9.00;;;;;14.83;53.28;98993.50;5073205;28;45530;-64
2022/04/13 00:19:42;;;;;;;;;14.25;12.00;;;;;14.81;53.11;98998.06;5073226;27;45339;-64
2022/04/13 00:22:08;;;;;;;;;9.00;9.00;;;;;14.81;53.38;98991.88;5071855;28;45560;-64
2022/04/13 00:24:33;;;;;;;;;10.00;9.25;;;;;14.81;53.17;98991.88;5071943;28;45466;-64
2022/04/13 00:26:59;;;;;;;;;12.00;11.75;;;;;14.80;53.39;98996.34;5066632;27;45324;-64
2022/04/13 00:29:25;;;;;;;;;12.75;10.75;;;;;14.78;53.55;98987.63;5072218;27;46218;-64
2022/04/13 00:31:53;;;;;;;;;10.50;10.50;;;;;14.79;53.88;98988.47;5076289;28;45397;-64
2022/04/13 00:34:19;;;;;;;;;9.25;9.25;;;;;14.76;54.12;98984.19;5071293;27;45513;-64
2022/04/13 00:36:44;;;;;;;;;6.75;6.25;;;;;14.74;54.33;98985.25;5076839;28;45560;-64
2022/04/13 00:39:10;;;;;;;;;13.00;9.00;;;;;14.70;54.16;98983.72;5074057;27;46114;-64
2022/04/13 00:41:35;;;;;;;;;9.25;6.75;;;;;14.65;54.58;98979.53;5074440;28;45380;-64
2022/04/13 00:44:06;;;;;;;;;7.75;6.00;;;;;14.63;54.35;98978.75;5074377;28;45374;-64
2022/04/13 00:46:32;;;;;;;;;10.75;10.75;;;;;14.62;54.75;98974.41;5075034;28;45556;-64
2022/04/13 00:49:00;;;;;;;;;16.00;10.33;;;;;14.62;54.79;98981.50;5072967;28;47729;-64
2022/04/13 00:51:26;;;;;;;;;7.50;7.00;;;;;14.61;55.58;98975.34;5073754;28;45297;-67
2022/04/13 00:53:52;;;;;;;;;11.25;11.25;;;;;14.58;55.28;98977.31;5076020;28;45336;-64
2022/04/13 00:56:24;;;;;;;;;12.25;8.50;;;;;14.52;55.96;98975.03;5073330;28;45855;-64
2022/04/13 00:58:55;;;;;;;;;11.00;9.75;;;;;14.47;55.98;98977.94;5073550;27;46504;-64
2022/04/13 01:01:25;;;;;;;;;9.50;7.50;;;;;14.42;55.69;98973.84;5072842;28;45441;-64
2022/04/13 01:03:52;;;;;;;;;7.75;7.75;;;;;14.39;56.06;98974.00;5075831;28;45402;-64
2022/04/13 01:06:19;;;;;;;;;10.25;7.00;;;;;14.37;56.21;98973.25;5074021;28;45340;-64
2022/04/13 01:08:48;;;;;;;;;10.50;7.50;;;;;14.36;56.37;98976.84;5075320;27;46300;-64
2022/04/13 01:11:14;;;;;;;;;8.00;6.75;;;;;14.31;56.79;98967.34;5076516;27;45481;-64
2022/04/13 01:13:40;;;;;;;;;9.25;7.00;;;;;14.27;56.72;98971.09;5076574;27;45387;-64
2022/04/13 01:16:06;;;;;;;;;9.50;8.50;;;;;14.25;56.32;98966.84;5068467;27;45325;-64
2022/04/13 01:18:32;;;;;;;;;7.75;6.75;;;;;14.21;57.11;98967.97;5075496;27;45411;-64
2022/04/13 01:20:58;;;;;;;;;7.00;6.00;;;;;14.16;56.98;98962.94;5076428;28;45387;-64
2022/04/13 01:23:24;;;;;;;;;7.00;7.00;;;;;14.15;56.74;98965.66;5076464;28;45388;-64
2022/04/13 01:25:51;;;;;;;;;5.25;5.00;;;;;14.15;56.74;98963.88;5071943;27;45434;-64
2022/04/13 01:28:17;;;;;;;;;7.00;7.00;;;;;14.14;57.41;98966.59;5076172;27;46558;-64
2022/04/13 01:30:43;;;;;;;;;10.75;7.50;;;;;14.11;56.98;98970.28;5067888;27;45454;-64
2022/04/13 01:33:09;;;;;;;;;7.75;7.00;;;;;14.10;57.15;98970.34;5076186;27;45458;-64
2022/04/13 01:35:34;;;;;;;;;10.00;8.00;;;;;14.08;57.05;98969.59;5068928;27;45482;-64
2022/04/13 01:38:00;;;;;;;;;7.75;7.75;;;;;14.07;56.80;98967.91;5076536;27;46493;-64
2022/04/13 01:40:25;;;;;;;;;9.75;8.00;;;;;14.05;57.08;98973.28;5070403;28;45457;-64
2022/04/13 01:42:51;;;;;;;;;10.75;6.75;;;;;14.06;57.79;98975.00;5076764;27;45361;-64
2022/04/13 01:45:19;;;;;;;;;7.00;7.00;;;;;14.02;58.10;98973.47;5068512;27;45427;-64
2022/04/13 01:47:47;;;;;;;;;11.00;7.00;;;;;13.95;57.97;98967.63;5074823;28;47850;-64
2022/04/13 01:50:13;;;;;;;;;8.00;8.00;;;;;13.91;58.19;98974.03;5071841;27;45363;-64
2022/04/13 01:52:38;;;;;;;;;10.25;8.75;;;;;13.89;58.28;98970.66;5076461;27;45365;-64
2022/04/13 01:55:04;;;;;;;;;12.25;8.00;;;;;13.87;58.40;98976.97;5075742;27;45537;-64
2022/04/13 01:57:29;;;;;;;;;7.75;7.00;;;;;13.82;58.77;98977.22;5081404;27;47353;-64
2022/04/13 01:59:55;;;;;;;;;9.50;8.25;;;;;13.78;58.71;98973.03;5072167;27;45440;-64
2022/04/13 02:02:20;;;;;;;;;9.75;8.00;;;;;13.79;58.30;98973.88;5076527;27;45404;-64
2022/04/13 02:04:48;;;;;;;;;8.75;7.75;;;;;13.78;58.97;98983.63;5071827;28;45161;-64
2022/04/13 02:07:14;;;;;;;;;6.00;5.25;;;;;13.77;59.05;98981.06;5073029;27;46042;-64
2022/04/13 02:09:39;;;;;;;;;7.50;5.25;;;;;13.74;59.86;98986.56;5074282;27;45166;-64
2022/04/13 02:12:05;;;;;;;;;7.00;5.25;;;;;13.71;58.80;98986.72;5075732;27;45519;-64
2022/04/13 02:14:30;;;;;;;;;9.75;9.00;;;;;13.67;59.95;98977.22;5071720;27;45429;-66
2022/04/13 02:16:55;;;;;;;;;7.75;7.00;;;;;13.63;59.46;98979.16;5067617;28;45656;-64
2022/04/13 02:19:21;;;;;;;;;8.00;6.25;;;;;13.59;60.25;98972.31;5073686;27;45493;-64
2022/04/13 02:21:46;;;;;;;;;9.75;6.00;;;;;13.53;59.79;98975.31;5067504;27;45367;-64
2022/04/13 02:24:12;;;;;;;;;8.00;8.00;;;;;13.47;60.46;98973.84;5072476;27;45461;-64
2022/04/13 02:26:37;;;;;;;;;6.50;6.00;;;;;13.43;60.81;98982.03;5064223;28;45690;-65
2022/04/13 02:29:03;;;;;;;;;8.25;7.50;;;;;13.37;60.73;98979.75;5072102;28;45392;-67
2022/04/13 02:31:29;;;;;;;;;10.00;7.00;;;;;13.32;60.81;98981.78;5071363;27;45524;-64
2022/04/13 02:33:56;;;;;;;;;8.50;6.75;;;;;13.26;61.05;98977.66;5073436;27;45561;-64
2022/04/13 02:36:21;;;;;;;;;8.25;7.00;;;;;13.21;61.67;98974.41;5071065;28;45400;-64
2022/04/13 02:38:47;;;;;;;;;10.25;6.50;;;;;13.17;61.70;98979.00;5073697;27;45497;-64
2022/04/13 02:41:12;;;;;;;;;7.00;5.25;;;;;13.13;61.49;98976.56;5071101;27;45487;-64
2022/04/13 02:43:39;;;;;;;;;8.75;7.00;;;;;13.11;62.04;98981.06;5073380;27;45612;-64
2022/04/13 02:46:04;;;;;;;;;5.75;4.25;;;;;13.11;61.63;98984.59;5070549;27;45408;-64
2022/04/13 02:48:30;;;;;;;;;7.50;6.25;;;;;13.09;61.70;98981.16;5074770;27;45465;-63
2022/04/13 02:50:56;;;;;;;;;8.75;6.75;;;;;13.09;62.08;98988.25;5066693;28;45380;-63
2022/04/13 02:53:23;;;;;;;;;5.00;5.00;;;;;13.05;62.81;98990.22;5075153;28;45448;-63
2022/04/13 02:55:51;;;;;;;;;5.00;5.00;;;;;13.00;62.79;98984.28;5070158;27;45462;-64
2022/04/13 02:58:17;;;;;;;;;6.00;6.00;;;;;12.97;63.12;98981.81;5061762;28;45387;-64
2022/04/13 03:00:42;;;;;;;;;7.00;6.25;;;;;12.94;61.96;98989.91;5070286;28;45413;-64
2022/04/13 03:03:08;;;;;;;;;8.00;8.00;;;;;12.90;62.58;98989.19;5075739;27;45420;-64
2022/04/13 03:05:33;;;;;;;;;7.00;5.00;;;;;12.88;62.92;98985.78;5072589;27;46550;-63
2022/04/13 03:07:59;;;;;;;;;5.75;5.75;;;;;12.86;64.18;98987.66;5075022;28;45386;-64
2022/04/13 03:10:24;;;;;;;;;8.50;4.75;;;;;12.85;64.01;98983.31;5064356;28;45418;-64
2022/04/13 03:12:50;;;;;;;;;7.75;5.00;;;;;12.86;64.90;98992.09;5074519;28;45492;-64
2022/04/13 03:15:15;;;;;;;;;5.00;3.25;;;;;12.85;64.24;98985.09;5066108;27;46041;-64
2022/04/13 03:17:41;;;;;;;;;7.00;6.75;;;;;12.83;63.77;98987.81;5074424;28;45407;-64
2022/04/13 03:20:07;;;;;;;;;4.25;3.75;;;;;12.83;64.15;98993.09;5069738;28;45450;-64
2022/04/13 03:22:33;;;;;;;;;7.75;5.75;;;;;12.84;64.34;98997.47;5074861;27;45421;-64
2022/04/13 03:25:03;;;;;;;;;7.00;6.50;;;;;12.85;63.59;99000.97;5067179;28;45536;-64
2022/04/13 03:27:28;;;;;;;;;7.50;5.00;;;;;12.84;64.05;98991.31;5064636;27;45443;-64
2022/04/13 03:29:54;;;;;;;;;4.00;4.00;;;;;12.81;64.69;98996.75;5069014;27;45460;-64
2022/04/13 03:32:19;;;;;;;;;7.25;4.00;;;;;12.80;64.18;98997.69;5074618;27;45486;-64
2022/04/13 03:34:45;;;;;;;;;7.00;4.75;;;;;12.80;64.22;99000.34;5069521;28;46479;-64
2022/04/13 03:37:10;;;;;;;;;9.00;7.00;;;;;12.82;64.68;98998.47;5073949;28;45435;-63
2022/04/13 03:39:36;;;;;;;;;3.75;3.00;;;;;12.83;64.58;99000.19;5069923;28;45423;-63
2022/04/13 03:42:02;;;;;;;;;9.25;6.00;;;;;12.81;64.45;99010.84;5073511;28;45392;-64
2022/04/13 03:44:28;;;;;;;;;4.75;4.25;;;;;12.85;63.79;99014.19;5072832;27;45526;-63
2022/04/13 03:46:54;;;;;;;;;9.50;5.00;;;;;12.85;65.08;99012.41;5073640;28;45324;-64
2022/04/13 03:49:20;;;;;;;;;5.75;4.00;;;;;12.83;65.29;99014.28;5069185;27;45337;-63
2022/04/13 03:51:46;;;;;;;;;7.50;5.00;;;;;12.82;64.79;99022.28;5073471;28;45363;-64
2022/04/13 03:54:11;;;;;;;;;4.25;4.00;;;;;12.80;65.38;99011.78;5063017;27;46418;-63
2022/04/13 03:56:37;;;;;;;;;8.25;6.75;;;;;12.79;64.72;99003.91;5074862;28;45416;-63
2022/04/13 03:59:07;;;;;;;;;12.50;6.50;;;;;12.79;65.25;99015.34;5073919;27;45485;-63
2022/04/13 04:01:33;;;;;;;;;9.50;8.75;;;;;12.77;64.98;99019.00;5074416;28;45533;-63
2022/04/13 04:03:58;;;;;;;;;7.00;7.00;;;;;12.77;65.45;99026.94;5068815;28;46045;-63
2022/04/13 04:06:24;;;;;;;;;9.00;6.25;;;;;12.75;65.89;99024.38;5077652;27;45407;-64
2022/04/13 04:08:50;;;;;;;;;10.00;5.75;;;;;12.77;64.64;99032.22;5075561;28;45535;-63
2022/04/13 04:11:16;;;;;;;;;9.50;8.00;;;;;12.78;65.00;99028.66;5077344;27;45541;-64
2022/04/13 04:13:41;;;;;;;;;7.25;5.75;;;;;12.81;65.17;99031.16;5071139;28;45455;-63
2022/04/13 04:16:07;;;;;;;;;7.00;6.75;;;;;12.84;65.01;99033.66;5075597;28;45313;-63
2022/04/13 04:18:32;;;;;;;;;9.50;5.75;;;;;12.87;65.21;99034.34;5076750;27;45350;-63
2022/04/13 04:20:57;;;;;;;;;9.75;7.50;;;;;12.86;64.12;99032.63;5069135;28;45455;-63
2022/04/13 04:23:23;;;;;;;;;11.75;8.25;;;;;12.84;64.11;99039.78;5076725;28;45554;-64
2022/04/13 04:25:49;;;;;;;;;8.25;5.25;;;;;12.81;65.10;99041.72;5072454;28;45323;-63
2022/04/13 04:28:15;;;;;;;;;10.00;6.00;;;;;12.80;65.15;99045.31;5072425;28;45451;-63
2022/04/13 04:30:41;;;;;;;;;7.50;6.50;;;;;12.77;65.49;99043.66;5066392;27;45452;-63
2022/04/13 04:33:08;;;;;;;;;12.75;6.25;;;;;12.74;65.61;99043.81;5072135;28;45402;-63
2022/04/13 04:35:34;;;;;;;;;10.50;8.75;;;;;12.71;65.44;99043.13;5068991;27;45436;-63
2022/04/13 04:38:00;;;;;;;;;9.67;7.00;;;;;12.69;66.14;99045.00;5075058;28;45360;-63
2022/04/13 04:40:26;;;;;;;;;7.50;6.75;;;;;12.66;65.92;99051.28;5069907;27;45499;-63
2022/04/13 04:42:52;;;;;;;;;10.50;7.00;;;;;12.65;65.92;99054.88;5076853;28;45374;-63
2022/04/13 04:45:21;;;;;;;;;7.00;5.75;;;;;12.65;65.46;99061.94;5070079;27;45551;-63
2022/04/13 04:47:49;;;;;;;;;11.50;8.00;;;;;12.66;65.67;99061.00;5076705;27;45473;-64
2022/04/13 04:50:18;;;;;;;;;10.50;6.00;;;;;12.64;65.91;99063.72;5069173;28;45502;-64
2022/04/13 04:52:44;;;;;;;;;6.00;5.00;;;;;12.65;65.52;99064.59;5071189;27;45410;-64
2022/04/13 04:55:12;;;;;;;;;10.50;6.00;;;;;12.64;65.72;99066.38;5070297;28;45368;-64
2022/04/13 04:57:38;;;;;;;;;7.67;6.00;;;;;12.64;66.21;99074.31;5076633;27;45475;-64
2022/04/13 05:00:10;;;;;;;;;8.00;7.50;;;;;12.63;65.65;99072.59;5069942;27;45446;-64
2022/04/13 05:15:07;;;;;;;;;6.00;6.00;;;;;12.80;65.25;99069.13;5120775;27;45527;-64
2022/04/13 05:17:32;;;;;;;;;11.25;10.25;;;;;12.83;64.92;99064.53;5106283;27;45438;-64
2022/04/13 05:19:57;;;;;;;;;9.50;5.75;;;;;12.85;64.40;99065.31;5108894;27;45388;-64
2022/04/13 05:22:23;;;;;;;;;11.75;9.75;;;;;12.87;65.00;99066.09;5109288;27;45517;-64
2022/04/13 05:24:49;;;;;;;;;8.00;8.00;;;;;12.85;65.04;99065.31;5106981;27;45578;-64
2022/04/13 05:27:15;;;;;;;;;10.25;7.50;;;;;12.86;64.77;99071.47;5110048;27;45208;-64
2022/04/13 05:29:40;;;;;;;;;10.75;9.50;;;;;12.88;65.08;99066.97;5107273;27;45495;-63
2022/04/13 05:32:06;;;;;;;;;11.75;9.00;;;;;12.92;64.98;99073.78;5110915;27;45326;-64
2022/04/13 05:34:32;;;;;;;;;13.00;12.00;;;;;12.93;64.35;99078.16;5106626;27;45985;-64
2022/04/13 05:36:57;;;;;;;;;12.00;10.00;;;;;12.96;64.21;99075.34;5111357;27;45458;-64
2022/04/13 05:39:23;;;;;;;;;8.25;7.00;;;;;12.94;64.72;99077.22;5105795;27;45443;-64
2022/04/13 05:41:48;;;;;;;;;7.75;7.00;;;;;12.88;64.29;99078.41;5110051;27;45480;-64
2022/04/13 05:44:14;;;;;;;;;6.75;5.75;;;;;12.86;64.54;99080.25;5104945;27;46060;-64
2022/04/13 05:46:41;;;;;;;;;10.50;8.25;;;;;12.84;65.00;99082.13;5096393;27;45440;-65
2022/04/13 05:49:07;;;;;;;;;8.50;8.00;;;;;12.81;65.19;99087.56;5107316;27;45480;-67
2022/04/13 05:51:32;;;;;;;;;15.33;11.67;;;;;12.80;65.78;99090.28;5109737;27;45317;-66
2022/04/13 05:53:58;;;;;;;;;14.67;12.00;;;;;12.78;65.21;99086.84;5108226;27;47756;-67
2022/04/13 05:56:23;;;;;;;;;10.25;7.75;;;;;12.77;65.57;99096.56;5110964;27;45447;-67
2022/04/13 05:58:49;;;;;;;;;9.25;9.00;;;;;12.76;65.45;99105.44;5105784;27;45430;-67
2022/04/13 06:01:14;;;;;;;;;10.75;9.50;;;;;12.75;66.07;99098.44;5111284;27;45396;-66
2022/04/13 06:03:40;;;;;;;;;8.50;7.00;;;;;12.76;65.58;99104.59;5107609;27;46228;-67
2022/04/13 06:06:05;;;;;;;;;11.25;10.00;;;;;12.74;66.15;99109.94;5106090;27;45359;-67
2022/04/13 06:08:31;;;;;;;;;11.50;9.75;;;;;12.72;66.54;99110.97;5105871;27;45502;-67
2022/04/13 06:10:56;;;;;;;;;11.50;6.25;;;;;12.70;66.05;99112.84;5110783;27;45457;-67
2022/04/13 06:13:21;;;;;;;;;13.75;11.50;;;;;12.74;66.02;99109.09;5099499;27;45460;-67
2022/04/13 06:15:47;;;;;;;;;10.50;8.25;;;;;12.76;65.43;99121.31;5096975;27;45436;-66
2022/04/13 06:18:12;;;;;;;;;7.25;6.75;;;;;12.77;65.43;99122.19;5085535;27;45333;-66
2022/04/13 06:20:38;;;;;;;;;9.00;7.75;;;;;12.79;65.26;99133.53;5093308;27;45553;-67
2022/04/13 06:23:03;;;;;;;;;8.00;8.00;;;;;12.78;65.05;99137.13;5089858;27;46380;-66
2022/04/13 06:25:29;;;;;;;;;11.00;9.00;;;;;12.79;65.37;99131.75;5089260;27;45339;-66
2022/04/13 06:27:55;;;;;;;;;14.00;8.00;;;;;12.84;65.45;99134.19;5090574;27;45517;-66
2022/04/13 06:30:20;;;;;;;;;11.50;6.75;;;;;12.89;65.43;99134.81;5094467;27;45372;-66
2022/04/13 06:32:46;;;;;;;;;12.25;9.50;;;;;12.93;65.39;99142.50;5093850;27;46161;-66
2022/04/13 06:35:16;;;;;;;;;10.00;8.75;;;;;12.99;65.34;99140.50;5095227;27;45426;-65
2022/04/13 06:37:44;;;;;;;;;9.25;7.75;;;;;13.06;65.21;99140.13;5091353;27;45379;-65
2022/04/13 06:40:10;;;;;;;;;13.00;12.25;;;;;13.14;64.96;99142.38;5094255;27;45506;-65
2022/04/13 06:42:37;;;;;;;;;10.00;10.00;;;;;13.21;64.79;99144.69;5087765;27;47434;-65
2022/04/13 06:45:09;;;;;;;;;12.00;11.00;;;;;13.31;64.55;99144.22;5095593;27;45375;-64
2022/04/13 06:47:34;;;;;;;;;10.00;10.00;;;;;13.44;64.46;99148.81;5092183;27;45393;-68
2022/04/13 06:50:00;;;;;;;;;10.00;8.25;;;;;13.56;64.28;99148.19;5095336;27;45434;-65
2022/04/13 06:52:25;;;;;;;;;10.25;9.75;;;;;13.66;63.47;99145.06;5090605;27;46502;-65
2022/04/13 06:54:51;;;;;;;;;6.25;3.00;;;;;13.68;63.43;99145.84;5091355;27;45420;-65
2022/04/13 06:57:16;;;;;;;;;9.50;8.00;;;;;13.64;63.65;99147.78;5090654;27;45398;-65
2022/04/13 06:59:42;;;;;;;;;11.00;9.50;;;;;13.65;63.68;99146.84;5097104;27;45406;-65
2022/04/13 07:02:10;;;;;;;;;8.75;7.00;;;;;13.71;63.41;99140.38;5093202;27;46310;-65
2022/04/13 07:04:37;;;;;;;;;8.00;7.00;;;;;13.75;63.45;99140.09;5087161;27;45409;-65
2022/04/13 07:07:02;;;;;;;;;7.00;7.00;;;;;13.79;62.89;99140.81;5094715;27;45446;-65
2022/04/13 07:09:28;;;;;;;;;11.50;9.00;;;;;13.88;63.08;99145.66;5093559;27;45518;-66
2022/04/13 07:11:54;;;;;;;;;10.00;7.75;;;;;14.00;62.84;99150.28;5095819;27;45488;-65
2022/04/13 07:14:20;;;;;;;;;13.75;8.25;;;;;14.15;62.83;99143.28;5094377;27;45569;-66
2022/04/13 07:16:46;;;;;;;;;12.75;9.25;;;;;14.29;62.37;99138.09;5096828;27;45593;-65
2022/04/13 07:19:12;;;;;;;;;9.75;8.25;;;;;14.47;62.01;99146.88;5091383;27;45548;-65
2022/04/13 07:21:37;;;;;;;;;8.25;8.25;;;;;14.62;61.59;99138.03;5094721;27;46831;-66
2022/04/13 07:24:03;;;;;;;;;6.75;6.75;;;;;14.72;60.71;99141.91;5092568;27;45421;-66
2022/04/13 07:26:29;;;;;;;;;10.25;8.50;;;;;14.82;60.52;99144.88;5086290;27;45219;-65
2022/04/13 07:28:54;;;;;;;;;8.50;6.75;;;;;14.91;60.13;99144.38;5091329;27;45624;-66
2022/04/13 07:31:20;;;;;;;;;9.75;7.75;;;;;15.00;60.16;99142.03;5096090;27;45403;-66
2022/04/13 07:33:45;;;;;;;;;7.75;7.50;;;;;15.05;60.12;99139.13;5089223;27;45433;-66
2022/04/13 07:36:12;;;;;;;;;10.50;8.00;;;;;15.11;59.57;99140.53;5095343;27;45260;-66
2022/04/13 07:38:37;;;;;;;;;6.75;6.75;;;;;15.16;59.63;99146.44;5086079;27;45346;-66
2022/04/13 07:41:04;;;;;;;;;10.75;9.50;;;;;15.20;59.28;99137.38;5095179;27;45444;-66
2022/04/13 07:43:30;;;;;;;;;7.75;6.25;;;;;15.21;59.09;99139.09;5089521;27;45549;-66
2022/04/13 07:45:55;;;;;;;;;12.00;8.75;;;;;15.23;58.49;99143.38;5095923;27;45438;-66
2022/04/13 07:48:21;;;;;;;;;11.50;9.50;;;;;15.19;58.07;99140.97;5093307;27;45483;-66
2022/04/13 07:50:47;;;;;;;;;7.00;5.75;;;;;15.15;58.61;99132.31;5094726;27;46196;-66
2022/04/13 07:53:15;;;;;;;;;8.50;8.50;;;;;15.21;58.18;99145.25;5092128;27;45422;-66
2022/04/13 07:55:41;;;;;;;;;14.00;7.25;;;;;15.20;58.37;99142.69;5095782;27;45402;-65
2022/04/13 07:58:06;;;;;;;;;8.25;8.25;;;;;15.22;57.87;99138.13;5089144;27;45599;-66
2022/04/13 08:00:32;;;;;;;;;13.75;8.50;;;;;15.30;58.28;99143.84;5090844;27;45723;-66
2022/04/13 08:02:58;;;;;;;;;5.50;5.00;;;;;15.35;57.50;99134.66;5088679;27;45423;-66
2022/04/13 08:05:24;;;;;;;;;10.75;6.25;;;;;15.36;57.35;99140.84;5095462;27;45378;-66
2022/04/13 08:07:49;;;;;;;;;8.50;6.25;;;;;15.34;57.13;99140.06;5091981;27;45351;-65
2022/04/13 08:10:15;;;;;;;;;12.25;9.50;;;;;15.43;57.42;99144.81;5095591;27;45509;-66
2022/04/13 08:12:42;;;;;;;;;9.00;6.75;;;;;15.52;57.44;99152.25;5093100;27;45503;-67
2022/04/13 08:15:11;;;;;;;;;8.25;7.50;;;;;15.70;57.43;99153.00;5093651;27;45480;-68
2022/04/13 08:17:39;;;;;;;;;8.25;7.50;;;;;15.90;57.46;99146.47;5093307;27;45442;-66
2022/04/13 08:20:06;;;;;;;;;10.75;9.50;;;;;16.11;56.94;99139.78;5086875;27;45481;-66
2022/04/13 08:22:32;;;;;;;;;13.00;9.50;;;;;16.27;56.62;99142.34;5092609;27;45576;-67
2022/04/13 08:24:57;;;;;;;;;7.00;7.00;;;;;16.40;56.42;99145.97;5088381;27;45491;-65
2022/04/13 08:27:23;;;;;;;;;13.75;9.50;;;;;16.55;56.24;99147.66;5094586;27;45454;-65
2022/04/13 08:29:48;;;;;;;;;15.00;13.00;;;;;16.70;55.69;99152.00;5094072;27;47273;-65
2022/04/13 08:32:18;;;;;;;;;12.25;9.25;;;;;16.84;55.40;99153.78;5093571;27;45188;-65
2022/04/13 08:34:45;;;;;;;;;12.00;10.25;;;;;16.95;55.43;99155.72;5080758;27;45436;-66
2022/04/13 08:37:12;;;;;;;;;9.25;8.00;;;;;17.07;55.02;99154.94;5088571;27;45451;-68
2022/04/13 08:39:39;;;;;;;;;8.50;6.00;;;;;17.17;54.89;99155.19;5089898;27;46251;-66
2022/04/13 08:42:12;;;;;;;;;14.75;12.50;;;;;17.30;54.77;99166.72;5094532;27;45391;-67
2022/04/13 08:44:47;;;;;;;;;8.50;8.50;;;;;17.40;54.54;99158.03;5093841;27;45448;-67
2022/04/13 08:47:21;;;;;;;;;9.75;9.00;;;;;17.54;54.05;99161.56;5093968;27;45547;-67
2022/04/13 08:49:51;;;;;;;;;9.00;8.00;;;;;17.68;54.00;99158.84;5089809;27;45393;-67
2022/04/13 08:52:47;;;;;;;;;12.00;9.50;;;;;17.83;53.23;99157.78;5093270;27;45363;-67
2022/04/13 08:55:16;;;;;;;;;8.75;7.50;;;;;17.92;52.56;99149.16;5093367;27;45444;-66
2022/04/13 08:57:47;;;;;;;;;9.50;5.25;;;;;18.03;52.48;99146.59;5091419;27;45387;-66
2022/04/13 09:00:16;;;;;;;;;6.00;5.75;;;;;18.09;52.39;99143.50;5083042;27;46335;-66
2022/04/13 09:02:50;;;;;;;;;8.25;7.50;;;;;18.17;52.09;99145.59;5088586;27;45561;-66
2022/04/13 09:05:19;;;;;;;;;10.75;9.75;;;;;18.29;51.69;99149.22;5092974;27;45339;-66
2022/04/13 09:07:53;;;;;;;;;8.75;7.00;;;;;18.37;50.78;99154.88;5093313;27;45422;-67
2022/04/13 09:10:23;;;;;;;;;15.25;10.25;;;;;18.45;50.71;99157.81;5093563;27;45588;-67
2022/04/13 09:12:50;;;;;;;;;5.50;5.25;;;;;18.48;50.44;99153.13;5091261;27;45494;-67
2022/04/13 09:15:16;;;;;;;;;5.00;5.00;;;;;18.54;49.00;99156.31;5095341;27;45473;-67
2022/04/13 09:17:42;;;;;;;;;7.75;4.00;;;;;18.53;48.78;99144.78;5092658;27;45500;-67
2022/04/13 09:20:09;;;;;;;;;6.50;3.00;;;;;18.51;47.62;99143.19;5094700;27;45475;-67
2022/04/13 09:22:36;;;;;;;;;7.20;5.20;;;;;18.43;46.97;99138.44;5094107;27;45455;-67
2022/04/13 09:25:04;;;;;;;;;6.25;5.00;;;;;18.37;46.12;99137.03;5090432;27;45458;-67
2022/04/13 09:27:31;;;;;;;;;8.00;4.00;;;;;18.28;47.06;99144.84;5107607;27;45513;-67
2022/04/13 09:29:57;;;;;;;;;4.50;3.00;;;;;18.13;44.52;99136.09;5093142;27;46343;-66
2022/04/13 09:32:23;;;;;;;;;3.25;3.25;;;;;18.05;44.84;99131.31;5093823;27;45402;-66
2022/04/13 09:34:50;;;;;;;;;4.75;4.25;;;;;18.00;46.60;99127.25;5089778;27;45403;-66
2022/04/13 09:37:16;;;;;;;;;3.25;3.00;;;;;17.95;47.51;99132.06;5093760;27;45578;-66
2022/04/13 09:39:43;;;;;;;;;4.75;4.75;;;;;17.87;47.53;99121.94;5089359;27;45685;-66
2022/04/13 09:42:13;;;;;;;;;4.00;2.80;;;;;17.87;47.28;99123.75;5092250;27;45541;-66
2022/04/13 09:44:41;;;;;;;;;5.50;4.25;;;;;17.84;47.06;99127.47;5086345;27;45308;-66
2022/04/13 09:47:08;;;;;;;;;5.00;4.50;;;;;17.79;46.34;99130.47;5093981;27;45517;-66
2022/04/13 09:49:34;;;;;;;;;8.00;4.75;;;;;17.77;46.69;99120.84;5094590;27;48033;-66
2022/04/13 09:52:00;;;;;;;;;6.00;4.00;;;;;17.80;46.33;99120.66;5097539;27;45356;-66
2022/04/13 09:54:26;;;;;;;;;5.25;5.25;;;;;17.83;46.85;99119.59;5089611;27;45300;-66
2022/04/13 09:56:52;;;;;;;;;4.00;4.00;;;;;17.85;45.59;99128.34;5097289;27;45417;-66
2022/04/13 09:59:31;;;;;;;;;3.75;3.00;;;;;17.86;46.44;99119.38;5088604;27;47521;-66
2022/04/13 10:01:58;;;;;;;;;1.60;0.20;;;;;17.90;45.37;99119.06;5084297;27;45264;-67
2022/04/13 10:04:27;;;;;;;;;0.00;0.00;;;;;17.92;45.70;99117.16;5090907;27;45497;-66
2022/04/13 10:06:53;;;;;;;;;6.25;5.00;;;;;18.00;45.87;99105.91;5097484;27;45376;-66
2022/04/13 10:09:19;;;;;;;;;2.75;2.75;;;;;18.05;45.49;99101.97;5097129;27;46336;-66
2022/04/13 10:12:03;;;;;;;;;5.00;5.00;;;;;18.05;44.71;99099.31;5088568;27;45248;-66
2022/04/13 10:14:32;;;;;;;;;4.50;4.00;;;;;18.05;43.99;99096.63;5096697;27;45457;-66
2022/04/13 10:17:15;;;;;;;;;3.00;3.00;;;;;18.08;43.88;99090.25;5084737;27;45534;-66
2022/04/13 10:19:43;;;;;;;;;5.50;3.25;;;;;18.08;43.23;99079.56;5096684;27;46100;-66
2022/04/13 10:22:09;;;;;;;;;4.40;3.00;;;;;18.08;44.51;99083.09;5081918;27;45504;-68
2022/04/13 10:24:40;;;;;;;;;4.00;4.00;;;;;18.09;43.32;99063.44;5090489;27;45403;-65
2022/04/13 10:27:20;;;;;;;;;4.00;3.50;;;;;18.14;43.46;99069.28;5096184;27;45340;-69
2022/04/13 10:29:49;;;;;;;;;3.00;3.00;;;;;18.26;41.40;99082.72;5088686;27;45505;-65
2022/04/13 10:32:35;;;;;;;;;4.60;3.00;;;;;18.27;41.61;99058.56;5094266;27;45435;-65
2022/04/13 10:35:03;;;;;;;;;2.75;2.75;;;;;18.27;41.63;99057.72;5088005;27;45357;-66
2022/04/13 10:37:28;;;;;;;;;4.00;4.00;;;;;18.27;41.23;99055.91;5095663;27;45434;-66
2022/04/13 10:39:54;;;;;;;;;3.00;3.00;;;;;18.28;42.01;99046.94;5093887;27;45894;-66
2022/04/13 10:42:21;;;;;;;;;3.00;3.00;;;;;18.31;42.45;99046.72;5096632;27;45434;-67
2022/04/13 10:44:53;;;;;;;;;4.00;4.00;;;;;18.38;42.29;99039.97;5096782;27;45402;-67
2022/04/13 10:47:25;;;;;;;;;2.75;2.75;;;;;18.48;42.12;99037.47;5095352;27;45575;-67
2022/04/13 10:50:12;;;;;;;;;;;;;;;;;;;;;
2022/04/13 10:52:56;;;;;;;;;7.00;5.00;;;;;18.47;42.22;99044.63;5092711;27;71338;-65
2022/04/13 10:55:23;;;;;;;;;6.00;4.50;;;;;18.53;42.93;99038.00;5087425;27;45409;-66
2022/04/13 10:58:03;;;;;;;;;6.50;4.00;;;;;18.59;41.27;99037.59;5092760;27;45435;-66
2022/04/13 11:00:33;;;;;;;;;3.50;3.00;;;;;18.68;41.85;99038.69;5087525;27;46117;-66
2022/04/13 11:03:04;;;;;;;;;4.00;4.00;;;;;18.74;41.17;99040.94;5093987;27;45434;-66
2022/04/13 11:05:31;;;;;;;;;3.00;3.00;;;;;18.75;42.46;99042.63;5093761;27;45378;-66
2022/04/13 11:08:14;;;;;;;;;3.50;3.50;;;;;18.80;41.00;99040.44;5093617;27;45547;-66
2022/04/13 11:10:42;;;;;;;;;3.50;3.50;;;;;18.81;41.88;99015.44;5089548;27;46153;-66
2022/04/13 11:13:08;;;;;;;;;7.00;4.60;;;;;18.87;42.56;99016.81;5089972;27;45470;-66
2022/04/13 11:16:18;;;;;;;;;4.00;4.00;;;;;18.94;41.44;99015.38;5094900;27;45384;-66
2022/04/13 11:19:03;;;;;;;;;4.00;4.00;;;;;18.98;40.91;99006.16;5067253;27;45408;-66
2022/04/13 11:21:31;;;;;;;;;3.00;3.00;;;;;19.05;41.35;99016.28;5099185;27;47736;-67
2022/04/13 11:23:57;;;;;;;;;2.20;1.80;;;;;19.09;41.32;99016.91;5094776;27;45354;-66
2022/04/13 11:26:35;;;;;;;;;3.00;3.00;;;;;19.10;41.32;99014.06;5096188;27;45495;-67
2022/04/13 11:29:09;;;;;;;;;4.50;4.00;;;;;19.14;41.80;98996.00;5086811;27;45740;-66
2022/04/13 11:31:59;;;;;;;;;3.50;3.50;;;;;19.21;42.23;99004.41;5085823;27;45517;-66
2022/04/13 11:34:36;;;;;;;;;5.00;3.80;;;;;19.24;41.38;98999.69;5088070;27;45391;-66
2022/04/13 11:37:04;;;;;;;;;6.75;6.75;;;;;19.27;42.14;99003.94;5095676;27;45431;-66
2022/04/13 11:39:48;;;;;;;;;6.50;4.75;;;;;19.30;42.00;99001.00;5084578;27;45453;-66
2022/04/13 11:42:19;;;;;;;;;4.25;3.75;;;;;19.37;42.17;98991.53;5093421;27;45524;-66
2022/04/13 11:44:49;;;;;;;;;5.20;4.00;;;;;19.43;43.03;98978.56;5087258;27;45260;-66